Tiempo atmosférico en la estación meteorológica de Aller, Asturias (750 m.)



Fecha
DESCASC
Temp. máxima en grados centígrados (hora)
DESCASC
Temp. mínima en grados centígrados (hora)
DESCASC
Temp. media en grados centígrados
DESCASC
Racha de viento máxima en m/sg (hora)
DESCASC
Velocidad máxima media en intervalos de 10 minutos(hora)
DESCASC
Precipitaciones diarias en mm
DESCASC
Precipitaciones de 00:00 a 06:00 en mm
DESCASC
Precipitaciones de 06:00 a 12:00 en mm
DESCASC
Precipitaciones de 12:00 a 18:00 en mm
DESCASC
Precipitaciones de 18:00 a 24:00 en mm
DESCASC
17-08-2018 16.8 (14:40) 13.1 (23:59) 14.9 5.28 (13:00) 2.5 (13:10) 3.2 1.6 1.6 0 0
16-08-2018 23.8 (16:30) 12.9 (02:30) 18.3 6.67 (16:30) 3.33 (16:30) 0 0 0 0 0
15-08-2018 26.7 (16:30) 8.6 (08:20) 17.7 5.28 (16:30) 2.78 (15:00) 0 0 0 0 0
14-08-2018 24.4 (17:00) 10.8 (09:20) 17.6 6.39 (17:30) 2.78 (16:30) 0 0 0 0 0
13-08-2018 23.3 (16:00) 12.7 (08:00) 18 6.39 (15:50) 3.33 (16:20) 0 0 0 0 0
12-08-2018 24.9 (17:20) 12 (00:00) 18.4 6.39 (17:50) 2.78 (17:30) 0 0 0 0 0
11-08-2018 27 (16:00) 8.8 (00:00) 17.9 5.83 (18:00) 2.78 (16:20) 0 0 0 0 0
10-08-2018 21.7 (15:50) 6.2 (00:00) 14 6.39 (14:30) 3.33 (15:40) 0 0 0 0 0
09-08-2018 15.9 (13:30) 9 (00:00) 12.4 5.56 (15:10) 2.22 (16:20) 1 0.2 0.6 0.2 0
08-08-2018 20.9 (14:30) 9.1 (00:00) 15 6.39 (13:30) 2.78 (13:10) 8.8 0 0 0 8.8
07-08-2018 23.2 (16:30) 14.9 (00:00) 19.1 7.5 (17:30) 3.33 (16:10) 0.8 0.8 0 0 0
06-08-2018 32.3 (16:10) 14.6 (00:00) 23.4 4.72 (22:10) 2.78 (04:40) 0 0 0 0 0
05-08-2018 31.1 (16:30) 11.7 (00:00) 21.4 3.89 (16:20) 2.5 (14:50) 0 0 0 0 0
04-08-2018 28.7 (15:50) 16.4 (07:40) 22.6 6.11 (17:00) 2.78 (13:50) 0 0 0 0 0
03-08-2018 31.3 (16:40) 15.9 (00:00) 23.6 4.17 (15:00) 2.5 (04:20) 0 0 0 0 0
02-08-2018 31.3 (16:20) 12.1 (00:00) 21.7 5 (16:30) 2.5 (22:50) 0 0 0 0 0
01-08-2018 22.7 (16:00) 11.1 (08:00) 16.9 6.39 (15:20) 3.33 (16:20) 0.2 0 0 0.2 0
31-07-2018 19 (13:50) 13.9 (00:00) 16.4 5.56 (14:10) 2.5 (14:10) 0.8 0 0 0.2 0.6
30-07-2018 25.4 (15:30) 12.2 (00:00) 18.8 7.22 (16:00) 3.06 (16:00) 0 0 0 0 0
29-07-2018 25.5 (17:50) 11.7 (00:00) 18.6 5.28 (16:20) 2.78 (15:20) 0 0 0 0 0
28-07-2018 20.8 (13:40) 14.6 (00:00) 17.7 6.39 (14:50) 3.06 (14:40) 0 0 0 0 0
27-07-2018 21.4 (14:10) 15.5 (00:00) 18.4 5.56 (14:50) 2.5 (14:50) 0.8 0.2 0 0 0.6
26-07-2018 22.1 (12:50) 11.7 (00:00) 16.9 5.28 (13:40) 2.5 (13:00) 1.2 0.2 0 0 1
25-07-2018 23.2 (15:20) 16.3 (00:00) 19.8 5 (15:40) 2.5 (15:30) 0.4 0 0 0.2 0.2
24-07-2018 21.4 (13:50) 14.7 (00:00) 18 4.72 (14:40) 2.5 (14:00) 0.2 0 0 0 0.2
23-07-2018 28.2 (16:40) 11 (00:00) 19.6 5.83 (17:40) 2.5 (17:50) 0 0 0 0 0
22-07-2018 23.5 (15:40) 13.5 (00:00) 18.5 5.83 (13:50) 3.06 (15:50) 1.8 1.6 0 0.2 0
21-07-2018 17.8 (19:40) 8.3 (00:00) 13 3.33 (14:00) 1.67 (14:00) 0 0 0 0 0
20-07-2018 14.7 (13:10) 12.5 (00:00) 13.6 4.72 (11:30) 2.22 (11:50) 4.4 0.4 2.6 1.4 0

Gráficas

Temp. máximas Temp. mínimas Temp. medias Precipitaciones Rachas de viento máximas Velocidades máximas media en intervalos de 10 minutos

Datos horarios

Fecha y hora oficial Temperatura (ºC) Velocidad del viento (km/h) Dirección del viento Racha (km/h) Dirección de racha Precipitación (mm) Presión (hPa) Tendencia (hPa) Humedad (%)
2018-08-18 23:00:00 13.7 0 Calma 10 Sur 0 -- -- 92
2018-08-18 22:00:00 15.7 0 Calma 5 Sudeste 0 -- -- 87
2018-08-18 21:00:00 18.7 0 Calma 9 Norte 0 -- -- 81
2018-08-18 20:00:00 20.4 3 Noroeste 13 Noroeste 0 -- -- 72
2018-08-18 19:00:00 22.2 3 Oeste 13 Noroeste 0 -- -- 66
2018-08-18 18:00:00 22.8 6 Noroeste 17 Noroeste 0 -- -- 62
2018-08-18 17:00:00 22.4 9 Noroeste 18 Noroeste 0 -- -- 61
2018-08-18 16:00:00 21.8 9 Noroeste 18 Noroeste 0 -- -- 60
2018-08-18 15:00:00 20.9 7 Noroeste 20 Noroeste 0 -- -- 62
2018-08-18 14:00:00 19.5 8 Noroeste 17 Noroeste 0 -- -- 62
2018-08-18 13:00:00 18.4 6 Noroeste 18 Noroeste 0 -- -- 64
2018-08-18 12:00:00 16.4 5 Noroeste 9 Noroeste 0 -- -- 65
2018-08-18 11:00:00 13.1 3 Norte 6 Noroeste 0 -- -- 84
2018-08-18 10:00:00 8.1 3 Este 7 Sudeste 0 -- -- 100
2018-08-18 09:00:00 7 0 Calma 9 Sudeste 0 -- -- 98
2018-08-18 08:00:00 6.7 4 Sudeste 8 Sudeste 0 -- -- 98
2018-08-18 07:00:00 6.8 5 Sudeste 8 Sudeste 0 -- -- 97
2018-08-18 06:00:00 7.4 5 Sudeste 10 Sudeste 0 -- -- 96
2018-08-18 05:00:00 7.9 4 Sudeste 9 Sudeste 0 -- -- 96
2018-08-18 04:00:00 8.6 3 Sudeste 8 Sudeste 0 -- -- 96
2018-08-18 03:00:00 9.6 4 Sudeste 9 Sudeste 0 -- -- 95
2018-08-18 02:00:00 11 4 Sudeste 7 Sudeste 0 -- -- 92
2018-08-18 01:00:00 12.2 0 Calma 0 Calma 0 -- -- 95
2018-08-18 00:00:00 13.1 0 Calma 4 Noroeste 0 -- -- 96
2018-08-17 23:00:00 13.3 3 Noroeste 7 Noroeste 0 -- -- 95
2018-08-17 22:00:00 13.7 4 Norte 8 Norte 0 -- -- 92
2018-08-17 21:00:00 14.7 3 Norte 9 Noroeste 0 -- -- 89
2018-08-17 20:00:00 15.3 3 Noroeste 10 Norte 0 -- -- 85
2018-08-17 19:00:00 15.6 7 Noroeste 14 Noroeste 0 -- -- 81
2018-08-17 18:00:00 16.2 4 Noroeste 12 Noroeste 0 -- -- 83
2018-08-17 17:00:00 16.6 5 Noroeste 15 Noroeste 0 -- -- 80
2018-08-17 16:00:00 16.4 6 Noroeste 18 Noroeste 0 -- -- 86
2018-08-17 15:00:00 16.7 6 Noroeste 15 Noroeste 0 -- -- 83
2018-08-17 14:00:00 16.6 5 Norte 18 Noroeste 0 -- -- 86
2018-08-17 13:00:00 16.1 7 Norte 19 Norte 0 -- -- 87
2018-08-17 12:00:00 15.2 6 Noroeste 16 Noroeste 0.2 -- -- 94
2018-08-17 11:00:00 14.8 5 Norte 13 Norte 0.2 -- -- 97
2018-08-17 10:00:00 14.1 5 Norte 15 Norte 0 -- -- 99
2018-08-17 09:00:00 13.7 6 Norte 17 Norte 0.4 -- -- 99
2018-08-17 08:00:00 13.9 6 Norte 14 Noroeste 0.2 -- -- 98
2018-08-17 07:00:00 14.2 5 Norte 12 Norte 0.6 -- -- 98
2018-08-17 06:00:00 14.4 2 Noroeste 4 Noroeste 0.8 -- -- 97
2018-08-17 05:00:00 14.4 0 Calma 5 Noroeste 0.4 -- -- 97
2018-08-17 04:00:00 14.5 3 Norte 6 Norte 0.4 -- -- 97
2018-08-17 03:00:00 14.6 3 Norte 6 Norte 0 -- -- 96
2018-08-17 02:00:00 14.8 2 Norte 10 Noroeste 0 -- -- 95
2018-08-17 01:00:00 15.1 3 Norte 6 Norte 0 -- -- 95
2018-08-17 00:00:00 15.2 5 Norte 10 Nordeste 0 -- -- 94
2018-08-16 23:00:00 15.6 4 Norte 9 Norte 0 -- -- 91
2018-08-16 22:00:00 15.8 5 Norte 17 Noroeste 0 -- -- 90
2018-08-16 21:00:00 16.6 7 Norte 17 Norte 0 -- -- 87
2018-08-16 20:00:00 17.9 5 Norte 15 Noroeste 0 -- -- 81
2018-08-16 19:00:00 19.1 8 Norte 17 Noroeste 0 -- -- 79
2018-08-16 18:00:00 20.4 6 Norte 19 Noroeste 0 -- -- 76
2018-08-16 17:00:00 22.9 10 Norte 24 Noroeste 0 -- -- 68
2018-08-16 16:00:00 23 6 Noroeste 20 Noroeste 0 -- -- 66
2018-08-16 15:00:00 22.6 6 Noroeste 15 Noroeste 0 -- -- 63
2018-08-16 14:00:00 22 6 Noroeste 21 Noroeste 0 -- -- 70
2018-08-16 13:00:00 21.5 6 Noroeste 13 Noroeste 0 -- -- 72
2018-08-16 12:00:00 18.7 6 Noroeste 11 Norte 0 -- -- 83
2018-08-16 11:00:00 17.2 3 Noroeste 6 Noroeste 0 -- -- 85
2018-08-16 10:00:00 16 2 Oeste 5 Noroeste 0 -- -- 88
2018-08-16 09:00:00 15.1 0 Calma 8 Noroeste 0 -- -- 89
2018-08-16 08:00:00 14.2 3 Sudeste 12 Sudeste 0 -- -- 85
2018-08-16 07:00:00 13.3 7 Sudeste 12 Sudeste 0 -- -- 85
2018-08-16 06:00:00 13.7 8 Sudeste 14 Sudeste 0 -- -- 85
2018-08-16 05:00:00 13.6 7 Sudeste 13 Sudeste 0 -- -- 88
2018-08-16 04:00:00 13 6 Sudeste 13 Sudeste 0 -- -- 89
2018-08-16 03:00:00 12.9 7 Sudeste 11 Sudeste 0 -- -- 87
2018-08-16 02:00:00 13.1 5 Sudeste 12 Sudeste 0 -- -- 86
2018-08-16 01:00:00 14 7 Sudeste 11 Sudeste 0 -- -- 84
2018-08-16 00:00:00 15.5 7 Sudeste 10 Sudeste 0 -- -- 83
2018-08-15 23:00:00 15.8 3 Sudeste 7 Sur 0 -- -- 88
2018-08-15 22:00:00 17.9 4 Sudeste 6 Sudeste 0 -- -- 88
2018-08-15 21:00:00 21.1 0 Calma 10 Noroeste 0 -- -- 80
2018-08-15 20:00:00 23.8 5 Norte 16 Noroeste 0 -- -- 71
2018-08-15 19:00:00 25.8 7 Noroeste 15 Noroeste 0 -- -- 64
2018-08-15 18:00:00 26.3 9 Noroeste 18 Noroeste 0 -- -- 59
2018-08-15 17:00:00 26.5 9 Noroeste 19 Norte 0 -- -- 55
2018-08-15 16:00:00 26.3 9 Noroeste 19 Noroeste 0 -- -- 56
2018-08-15 15:00:00 25.4 10 Noroeste 17 Noroeste 0 -- -- 53
2018-08-15 14:00:00 24.6 8 Noroeste 16 Noroeste 0 -- -- 52
2018-08-15 13:00:00 22.8 6 Noroeste 12 Noroeste 0 -- -- 47
2018-08-15 12:00:00 20.8 5 Noroeste 8 Noroeste 0 -- -- 50
2018-08-15 11:00:00 16 2 Norte 4 Norte 0 -- -- 82
2018-08-15 10:00:00 9.5 0 Calma 10 Sudeste 0 -- -- 95
2018-08-15 09:00:00 9 5 Sudeste 11 Sudeste 0 -- -- 89
2018-08-15 08:00:00 8.7 4 Sudeste 10 Sudeste 0 -- -- 89
2018-08-15 07:00:00 9.2 6 Sudeste 10 Sudeste 0 -- -- 89
2018-08-15 06:00:00 10 6 Sudeste 10 Sudeste 0 -- -- 88
2018-08-15 05:00:00 10.9 8 Sudeste 12 Sudeste 0 -- -- 87
2018-08-15 04:00:00 12.2 5 Sudeste 10 Sudeste 0 -- -- 86
2018-08-15 03:00:00 13.4 6 Sudeste 10 Sudeste 0 -- -- 85
2018-08-15 02:00:00 14.3 5 Sudeste 9 Sur 0 -- -- 85
2018-08-15 01:00:00 16.5 3 Sudeste 8 Sudeste 0 -- -- 83
2018-08-15 00:00:00 17.8 0 Calma 5 Noroeste 0 -- -- 90
2018-08-14 23:00:00 18.2 0 Calma 5 Nordeste 0 -- -- 90
2018-08-14 22:00:00 18.8 2 Norte 12 Norte 0 -- -- 86
2018-08-14 21:00:00 20 6 Norte 15 Norte 0 -- -- 81
2018-08-14 20:00:00 22.6 5 Norte 18 Noroeste 0 -- -- 73
2018-08-14 19:00:00 23.8 7 Noroeste 18 Noroeste 0 -- -- 68
2018-08-14 18:00:00 24.1 10 Noroeste 23 Noroeste 0 -- -- 64
2018-08-14 17:00:00 24.4 8 Noroeste 20 Noroeste 0 -- -- 63
2018-08-14 16:00:00 24.2 8 Norte 22 Noroeste 0 -- -- 62
2018-08-14 15:00:00 23.2 9 Noroeste 20 Noroeste 0 -- -- 63
2018-08-14 14:00:00 22.3 8 Noroeste 18 Noroeste 0 -- -- 66
2018-08-14 13:00:00 20.8 7 Noroeste 13 Noroeste 0 -- -- 65
2018-08-14 12:00:00 19.1 4 Noroeste 10 Noroeste 0 -- -- 68
2018-08-14 11:00:00 16.9 3 Nordeste 8 Nordeste 0 -- -- 82
2018-08-14 10:00:00 11.4 3 Este 6 Este 0 -- -- 99
2018-08-14 09:00:00 10.9 4 Sudeste 9 Sudeste 0 -- -- 94
2018-08-14 08:00:00 11 5 Sudeste 8 Este 0 -- -- 93
2018-08-14 07:00:00 12.9 2 Sudeste 7 Sudeste 0 -- -- 91
2018-08-14 06:00:00 13.7 2 Sudeste 5 Sudeste 0 -- -- 91
2018-08-14 05:00:00 13.8 3 Sudeste 4 Sudeste 0 -- -- 89
2018-08-14 04:00:00 14.3 0 Calma 3 Noroeste 0 -- -- 94
2018-08-14 03:00:00 14.5 0 Calma 6 Norte 0 -- -- 94
2018-08-14 02:00:00 14.7 3 Norte 8 Norte 0 -- -- 92
2018-08-14 01:00:00 14.9 3 Norte 7 Norte 0 -- -- 92
2018-08-14 00:00:00 15.1 4 Norte 8 Norte 0 -- -- 93
2018-08-13 23:00:00 15.6 3 Norte 9 Norte 0 -- -- 91
2018-08-13 22:00:00 16.2 4 Norte 9 Norte 0 -- -- 90
2018-08-13 21:00:00 16.8 5 Norte 15 Noroeste 0 -- -- 87
2018-08-13 20:00:00 18.6 6 Norte 18 Norte 0 -- -- 80
2018-08-13 19:00:00 19.3 7 Norte 19 Norte 0 -- -- 78
2018-08-13 18:00:00 20.6 7 Norte 21 Noroeste 0 -- -- 73
2018-08-13 17:00:00 22.2 9 Noroeste 23 Noroeste 0 -- -- 67
2018-08-13 16:00:00 23.3 8 Noroeste 23 Noroeste 0 -- -- 60
2018-08-13 15:00:00 22.9 9 Noroeste 19 Noroeste 0 -- -- 62
2018-08-13 14:00:00 22 8 Noroeste 18 Noroeste 0 -- -- 63
2018-08-13 13:00:00 21 9 Noroeste 21 Noroeste 0 -- -- 65
2018-08-13 12:00:00 20.1 6 Noroeste 15 Noroeste 0 -- -- 70
2018-08-13 11:00:00 18.4 4 Noroeste 7 Norte 0 -- -- 77
2018-08-13 10:00:00 14 2 Nordeste 6 Sudeste 0 -- -- 95
2018-08-13 09:00:00 13.7 3 Sudeste 10 Sudeste 0 -- -- 91
2018-08-13 08:00:00 12.7 0 Calma 8 Sudeste 0 -- -- 92
2018-08-13 07:00:00 13.8 4 Sudeste 8 Sudeste 0 -- -- 86
2018-08-13 06:00:00 13.6 3 Sudeste 10 Sudeste 0 -- -- 92
2018-08-13 05:00:00 14.2 3 Sudeste 10 Sudeste 0 -- -- 90
2018-08-13 04:00:00 16.2 3 Este 6 Sudeste 0 -- -- 89
2018-08-13 03:00:00 16.5 2 Norte 7 Norte 0 -- -- 95
2018-08-13 02:00:00 16.8 2 Noroeste 10 Norte 0 -- -- 94
2018-08-13 01:00:00 17 4 Norte 12 Noroeste 0 -- -- 93
2018-08-13 00:00:00 17.5 4 Norte 13 Norte 0 -- -- 93
2018-08-12 23:00:00 18.3 5 Norte 14 Noroeste 0 -- -- 91
2018-08-12 22:00:00 19.2 5 Norte 10 Noroeste 0 -- -- 86
2018-08-12 21:00:00 20.1 4 Norte 12 Norte 0 -- -- 83
2018-08-12 20:00:00 21.1 3 Norte 12 Norte 0 -- -- 80
2018-08-12 19:00:00 21.7 4 Norte 14 Norte 0 -- -- 78
2018-08-12 18:00:00 23.7 8 Norte 23 Noroeste 0 -- -- 71
2018-08-12 17:00:00 24.8 10 Noroeste 18 Noroeste 0 -- -- 68
2018-08-12 16:00:00 22.6 6 Norte 14 Noroeste 0 -- -- 75
2018-08-12 15:00:00 22.4 5 Norte 14 Norte 0 -- -- 73
2018-08-12 14:00:00 23.8 6 Noroeste 19 Noroeste 0 -- -- 66
2018-08-12 13:00:00 23.3 8 Noroeste 20 Noroeste 0 -- -- 68
2018-08-12 12:00:00 22.6 6 Noroeste 15 Noroeste 0 -- -- 70
2018-08-12 11:00:00 19.8 2 Nordeste 8 Este 0 -- -- 91
2018-08-12 10:00:00 13.2 0 Calma 11 Sudeste 0 -- -- 97
2018-08-12 09:00:00 13 6 Sudeste 13 Sudeste 0 -- -- 96
2018-08-12 08:00:00 12.4 5 Sudeste 12 Sudeste 0 -- -- 96
2018-08-12 07:00:00 12 5 Sudeste 11 Sudeste 0 -- -- 97
2018-08-12 06:00:00 12.6 0 Calma 10 Sudeste 0 -- -- 95
2018-08-12 05:00:00 13.2 5 Sudeste 10 Sudeste 0 -- -- 96
2018-08-12 04:00:00 13.6 5 Sudeste 11 Sudeste 0 -- -- 96
2018-08-12 03:00:00 13.4 4 Sudeste 10 Sudeste 0 -- -- 96
2018-08-12 02:00:00 13.9 3 Sudeste 6 Sudeste 0 -- -- 95
2018-08-12 01:00:00 14.8 4 Sudeste 8 Sudeste 0 -- -- 94
2018-08-12 00:00:00 15.2 4 Sudeste 7 Sudeste 0 -- -- 93
2018-08-11 23:00:00 16.3 5 Sudeste 10 Sudeste 0 -- -- 90
2018-08-11 22:00:00 17.6 5 Sudeste 9 Sudeste 0 -- -- 86
2018-08-11 21:00:00 19.6 5 Sudeste 8 Sudeste 0 -- -- 80
2018-08-11 20:00:00 23.5 2 Sur 8 Noroeste 0 -- -- 65
2018-08-11 19:00:00 25.5 4 Noroeste 15 Noroeste 0 -- -- 58
2018-08-11 18:00:00 26.2 8 Norte 21 Noroeste 0 -- -- 59
2018-08-11 17:00:00 26.6 8 Norte 18 Noroeste 0 -- -- 61
2018-08-11 16:00:00 27 8 Noroeste 16 Noroeste 0 -- -- 59
2018-08-11 15:00:00 26.1 8 Noroeste 17 Noroeste 0 -- -- 54
2018-08-11 14:00:00 24.7 6 Noroeste 13 Noroeste 0 -- -- 56
2018-08-11 13:00:00 22.7 6 Noroeste 11 Noroeste 0 -- -- 60
2018-08-11 12:00:00 20.5 5 Noroeste 8 Noroeste 0 -- -- 63
2018-08-11 11:00:00 16.1 0 Calma 4 Este 0 -- -- 89
2018-08-11 10:00:00 10.6 0 Calma 10 Este 0 -- -- 99
2018-08-11 09:00:00 10 5 Sudeste 10 Sudeste 0 -- -- 100
2018-08-11 08:00:00 8.8 2 Sudeste 8 Sudeste 0 -- -- 98
2018-08-11 07:00:00 9.2 0 Calma 10 Sudeste 0 -- -- 97
2018-08-11 06:00:00 9.6 5 Sudeste 9 Este 0 -- -- 98
2018-08-11 05:00:00 10 3 Sudeste 9 Sudeste 0 -- -- 97
2018-08-11 04:00:00 10.5 2 Sudeste 9 Sudeste 0 -- -- 96
2018-08-11 03:00:00 11.2 4 Sudeste 9 Sudeste 0 -- -- 96
2018-08-11 02:00:00 12 4 Sudeste 8 Sudeste 0 -- -- 95
2018-08-11 01:00:00 13.8 4 Sudeste 7 Sudeste 0 -- -- 93
2018-08-11 00:00:00 15.4 0 Calma 7 Noroeste 0 -- -- 93
2018-08-10 23:00:00 16.3 2 Sudeste 3 Sudeste 0 -- -- 91
2018-08-10 22:00:00 16.7 0 Calma 6 Norte 0 -- -- 89
2018-08-10 21:00:00 17.1 3 Norte 9 Norte 0 -- -- 87
2018-08-10 20:00:00 17.7 5 Norte 13 Noroeste 0 -- -- 83
2018-08-10 19:00:00 18.8 5 Norte 16 Noroeste 0 -- -- 80
2018-08-10 18:00:00 19.7 5 Norte 16 Oeste 0 -- -- 75
2018-08-10 17:00:00 20.5 6 Norte 21 Noroeste 0 -- -- 72
2018-08-10 16:00:00 21.3 9 Noroeste 22 Noroeste 0 -- -- 65
2018-08-10 15:00:00 21.3 10 Noroeste 23 Noroeste 0 -- -- 65
2018-08-10 14:00:00 20.1 10 Noroeste 21 Noroeste 0 -- -- 66
2018-08-10 13:00:00 18.8 4 Noroeste 11 Noroeste 0 -- -- 64
2018-08-10 12:00:00 16.5 4 Noroeste 12 Noroeste 0 -- -- 69
2018-08-10 11:00:00 13.1 2 Nordeste 6 Este 0 -- -- 97
2018-08-10 10:00:00 7.8 2 Nordeste 6 Sudeste 0 -- -- 100
2018-08-10 09:00:00 6.7 0 Calma 8 Sudeste 0 -- -- 100
2018-08-10 08:00:00 6.2 3 Sudeste 7 Sudeste 0 -- -- 99
2018-08-10 07:00:00 6.5 0 Calma 8 Sudeste 0 -- -- 98
2018-08-10 06:00:00 6.8 6 Sudeste 8 Sudeste 0 -- -- 98
2018-08-10 05:00:00 7.4 3 Sudeste 7 Sudeste 0 -- -- 97
2018-08-10 04:00:00 8.1 4 Sudeste 7 Sudeste 0 -- -- 96
2018-08-10 03:00:00 9.3 0 Calma 3 Sudeste 0 -- -- 95
2018-08-10 02:00:00 11.3 0 Calma 2 Noroeste 0 -- -- 95
2018-08-10 01:00:00 11.9 0 Calma 2 Noroeste 0 -- -- 96
2018-08-10 00:00:00 12.1 0 Calma 2 Noroeste 0 -- -- 95
2018-08-09 23:00:00 12.3 0 Calma 2 Noroeste 0 -- -- 94
2018-08-09 22:00:00 12.8 0 Calma 2 Noroeste 0 -- -- 92
2018-08-09 21:00:00 13.5 0 Calma 5 Noroeste 0 -- -- 87
2018-08-09 20:00:00 13.6 3 Norte 12 Noroeste 0 -- -- 87
2018-08-09 19:00:00 14 5 Noroeste 10 Noroeste 0 -- -- 81
2018-08-09 18:00:00 13.1 2 Noroeste 10 Norte 0 -- -- 83
2018-08-09 17:00:00 12.4 5 Norte 17 Noroeste 0.2 -- -- 90
2018-08-09 16:00:00 13.9 7 Norte 20 Noroeste 0 -- -- 84
2018-08-09 15:00:00 15.6 4 Norte 14 Noroeste 0 -- -- 79
2018-08-09 14:00:00 14.9 8 Noroeste 19 Noroeste 0 -- -- 80
2018-08-09 13:00:00 15.2 3 Noroeste 12 Noroeste 0 -- -- 74
2018-08-09 12:00:00 13.8 5 Noroeste 13 Noroeste 0.2 -- -- 91
2018-08-09 11:00:00 11.8 5 Norte 13 Nordeste 0.2 -- -- 98
2018-08-09 10:00:00 11.4 5 Norte 13 Noroeste 0.2 -- -- 98
2018-08-09 09:00:00 10.6 0 Calma 10 Noroeste 0 -- -- 99
2018-08-09 08:00:00 10.1 3 Sudeste 6 Sudeste 0 -- -- 100
2018-08-09 07:00:00 9.8 2 Norte 8 Sudeste 0 -- -- 100
2018-08-09 06:00:00 9 2 Sur 5 Sudeste 0.2 -- -- 99
2018-08-09 05:00:00 9.1 0 Calma 8 Sudeste 0 -- -- 97
2018-08-09 04:00:00 10.1 2 Sudeste 6 Sudeste 0 -- -- 97
2018-08-09 03:00:00 11.4 2 Sudeste 8 Sudeste 0 -- -- 96
2018-08-09 02:00:00 12.1 0 Calma 4 Noroeste 0 -- -- 97
2018-08-09 01:00:00 12.1 0 Calma 14 Norte 0 -- -- 97
2018-08-09 00:00:00 12.5 8 Norte 20 Noroeste 5.6 -- -- 97
2018-08-08 23:00:00 14.9 6 Norte 15 Nordeste 2.6 -- -- 97
2018-08-08 22:00:00 16 4 Norte 12 Noroeste 0.6 -- -- 96
2018-08-08 21:00:00 16.6 4 Norte 11 Oeste 0 -- -- 93
2018-08-08 20:00:00 17.6 3 Norte 9 Norte 0 -- -- 89
2018-08-08 19:00:00 18.1 4 Norte 10 Noroeste 0 -- -- 83
2018-08-08 18:00:00 19 4 Norte 15 Norte 0 -- -- 79
2018-08-08 17:00:00 19.2 6 Norte 16 Noroeste 0 -- -- 77
2018-08-08 16:00:00 19.9 8 Noroeste 19 Oeste 0 -- -- 75
2018-08-08 15:00:00 20.4 9 Noroeste 21 Noroeste 0 -- -- 71
2018-08-08 14:00:00 20.4 6 Noroeste 23 Noroeste 0 -- -- 72
2018-08-08 13:00:00 19.9 9 Noroeste 18 Noroeste 0 -- -- 71
2018-08-08 12:00:00 18.2 7 Noroeste 15 Noroeste 0 -- -- 76
2018-08-08 11:00:00 16 4 Noroeste 9 Noroeste 0 -- -- 81
2018-08-08 10:00:00 11.7 4 Nordeste 9 Norte 0 -- -- 100
2018-08-08 09:00:00 9.5 3 Sudeste 9 Sudeste 0 -- -- 98
2018-08-08 08:00:00 9.2 6 Sudeste 9 Sudeste 0 -- -- 98
2018-08-08 07:00:00 9.6 3 Sudeste 9 Sudeste 0 -- -- 96
2018-08-08 06:00:00 10.1 4 Sudeste 10 Sudeste 0 -- -- 95
2018-08-08 05:00:00 10.5 6 Sudeste 11 Sudeste 0 -- -- 95
2018-08-08 04:00:00 11.3 6 Sudeste 11 Sudeste 0 -- -- 93
2018-08-08 03:00:00 12 5 Sudeste 10 Sudeste 0 -- -- 93
2018-08-08 02:00:00 13.4 3 Sudeste 6 Sudeste 0 -- -- 93
2018-08-08 01:00:00 14.7 2 Noroeste 5 Noroeste 0 -- -- 93
2018-08-08 00:00:00 14.9 4 Sudeste 6 Sudeste 0 -- -- 90
2018-08-07 23:00:00 15.2 0 Calma 2 Norte 0 -- -- 91
2018-08-07 22:00:00 16.3 0 Calma 4 Nordeste 0 -- -- 85
2018-08-07 21:00:00 17.1 2 Norte 11 Norte 0 -- -- 84
2018-08-07 20:00:00 17.4 6 Norte 14 Nordeste 0 -- -- 82
2018-08-07 19:00:00 18.4 6 Norte 21 Noroeste 0 -- -- 79
2018-08-07 18:00:00 20.2 8 Norte 27 Norte 0 -- -- 74
2018-08-07 17:00:00 22.7 11 Noroeste 26 Noroeste 0 -- -- 64
2018-08-07 16:00:00 23.1 10 Noroeste 25 Noroeste 0 -- -- 62
2018-08-07 15:00:00 21.7 7 Norte 20 Noroeste 0 -- -- 65
2018-08-07 14:00:00 21.9 6 Norte 14 Noroeste 0 -- -- 64
2018-08-07 13:00:00 19.7 4 Noroeste 14 Noroeste 0 -- -- 69
2018-08-07 12:00:00 19.4 4 Norte 17 Noroeste 0 -- -- 72
2018-08-07 11:00:00 18.4 5 Norte 11 Noroeste 0 -- -- 75
2018-08-07 10:00:00 15.8 3 Noroeste 9 Noroeste 0 -- -- 89
2018-08-07 09:00:00 15 3 Norte 8 Norte 0 -- -- 94
2018-08-07 08:00:00 15.2 4 Norte 10 Norte 0 -- -- 96
2018-08-07 07:00:00 15.6 3 Norte 14 Noroeste 0 -- -- 95
2018-08-07 06:00:00 16 6 Norte 12 Norte 0 -- -- 96
2018-08-07 05:00:00 16.7 5 Norte 15 Noroeste 0 -- -- 97
2018-08-07 04:00:00 17.3 6 Norte 13 Noroeste 0 -- -- 97
2018-08-07 03:00:00 17.7 5 Norte 12 Norte 0.2 -- -- 97
2018-08-07 02:00:00 18.1 3 Norte 9 Norte 0.2 -- -- 97
2018-08-07 01:00:00 18.4 4 Norte 14 Nordeste 0.4 -- -- 96
2018-08-07 00:00:00 19 6 Norte 14 Nordeste 0 -- -- 95
2018-08-06 23:00:00 20.4 5 Norte 17 Noroeste 0 -- -- 92
2018-08-06 22:00:00 21.9 7 Norte 15 Noroeste 0 -- -- 90
2018-08-06 21:00:00 24.4 4 Norte 11 Norte 0 -- -- 87
2018-08-06 20:00:00 26.7 4 Sur 13 Noroeste 0 -- -- 81
2018-08-06 19:00:00 29.6 7 Norte 15 Norte 0 -- -- 69
2018-08-06 18:00:00 31.4 6 Noroeste 15 Noroeste 0 -- -- 61
2018-08-06 17:00:00 32 6 Noroeste 15 Noroeste 0 -- -- 56
2018-08-06 16:00:00 32.2 4 Noroeste 14 Noroeste 0 -- -- 53
2018-08-06 15:00:00 31.3 8 Noroeste 15 Noroeste 0 -- -- 47
2018-08-06 14:00:00 30.4 6 Noroeste 10 Noroeste 0 -- -- 45
2018-08-06 13:00:00 28.8 4 Noroeste 8 Noroeste 0 -- -- 55
2018-08-06 12:00:00 26.8 4 Noroeste 7 Noroeste 0 -- -- 69
2018-08-06 11:00:00 23.2 2 Norte 4 Norte 0 -- -- 80
2018-08-06 10:00:00 19 0 Calma 4 Norte 0 -- -- 88
2018-08-06 09:00:00 16.7 0 Calma 4 Sudeste 0 -- -- 89
2018-08-06 08:00:00 15.8 3 Noroeste 11 Sudeste 0 -- -- 80
2018-08-06 07:00:00 14.8 2 Sudeste 7 Sudeste 0 -- -- 86
2018-08-06 06:00:00 15.9 7 Sudeste 10 Sudeste 0 -- -- 80
2018-08-06 05:00:00 16.9 3 Sudeste 13 Sudeste 0 -- -- 80
2018-08-06 04:00:00 17.2 4 Sudeste 13 Sudeste 0 -- -- 81
2018-08-06 03:00:00 17.3 3 Sudeste 10 Sudeste 0 -- -- 87
2018-08-06 02:00:00 17.6 4 Sudeste 11 Sudeste 0 -- -- 87
2018-08-06 01:00:00 18.6 8 Sudeste 12 Sudeste 0 -- -- 85
2018-08-06 00:00:00 19.4 7 Sudeste 10 Sudeste 0 -- -- 88
2018-08-05 23:00:00 20.3 4 Sudeste 9 Sudeste 0 -- -- 89
2018-08-05 22:00:00 22.1 5 Sudeste 9 Sudeste 0 -- -- 85
2018-08-05 21:00:00 24.8 4 Sudeste 7 Sudeste 0 -- -- 78
2018-08-05 20:00:00 28.3 3 Noroeste 8 Norte 0 -- -- 67
2018-08-05 19:00:00 29.8 4 Noroeste 13 Noroeste 0 -- -- 58
2018-08-05 18:00:00 30.6 3 Noroeste 6 Norte 0 -- -- 48
2018-08-05 17:00:00 30.9 3 Noroeste 14 Noroeste 0 -- -- 39
2018-08-05 16:00:00 30.8 8 Noroeste 13 Noroeste 0 -- -- 42
2018-08-05 15:00:00 30 7 Noroeste 14 Noroeste 0 -- -- 40
2018-08-05 14:00:00 29 6 Noroeste 10 Noroeste 0 -- -- 39
2018-08-05 13:00:00 27.3 5 Noroeste 10 Noroeste 0 -- -- 35
2018-08-05 12:00:00 24.9 2 Noroeste 7 Noroeste 0 -- -- 57
2018-08-05 11:00:00 19.9 2 Nordeste 5 Nordeste 0 -- -- 83
2018-08-05 10:00:00 13.1 2 Este 8 Sudeste 0 -- -- 97
2018-08-05 09:00:00 12.5 2 Sudeste 12 Sudeste 0 -- -- 91
2018-08-05 08:00:00 11.7 4 Sudeste 11 Sudeste 0 -- -- 92
2018-08-05 07:00:00 12.1 4 Sudeste 11 Sudeste 0 -- -- 91
2018-08-05 06:00:00 13 5 Sudeste 10 Sur 0 -- -- 90
2018-08-05 05:00:00 14.1 6 Sudeste 12 Sudeste 0 -- -- 89
2018-08-05 04:00:00 15.1 6 Sudeste 11 Sudeste 0 -- -- 90
2018-08-05 03:00:00 16 7 Sudeste 11 Sudeste 0 -- -- 89
2018-08-05 02:00:00 17.4 5 Sudeste 10 Sudeste 0 -- -- 86
2018-08-05 01:00:00 18.9 5 Sudeste 9 Sur 0 -- -- 84
2018-08-05 00:00:00 19.7 5 Sudeste 7 Sudeste 0 -- -- 87
2018-08-04 23:00:00 22.5 0 Calma 5 Noroeste 0 -- -- 91
2018-08-04 22:00:00 23.4 0 Calma 5 Norte 0 -- -- 89
2018-08-04 21:00:00 24.2 3 Norte 13 Norte 0 -- -- 84
2018-08-04 20:00:00 26.1 5 Norte 18 Norte 0 -- -- 78
2018-08-04 19:00:00 27.2 7 Norte 18 Noroeste 0 -- -- 74
2018-08-04 18:00:00 27.9 9 Noroeste 22 Noroeste 0 -- -- 72
2018-08-04 17:00:00 28.5 9 Norte 22 Norte 0 -- -- 69
2018-08-04 16:00:00 28.7 9 Noroeste 21 Noroeste 0 -- -- 69
2018-08-04 15:00:00 28.5 7 Noroeste 19 Noroeste 0 -- -- 68
2018-08-04 14:00:00 27.3 9 Noroeste 18 Noroeste 0 -- -- 70
2018-08-04 13:00:00 26.4 6 Noroeste 11 Noroeste 0 -- -- 71
2018-08-04 12:00:00 24.8 5 Noroeste 12 Noroeste 0 -- -- 75
2018-08-04 11:00:00 22.9 4 Noroeste 7 Noroeste 0 -- -- 83
2018-08-04 10:00:00 19.3 0 Calma 8 Sudeste 0 -- -- 96
2018-08-04 09:00:00 18 4 Sudeste 10 Sudeste 0 -- -- 89
2018-08-04 08:00:00 16.4 6 Sudeste 10 Sudeste 0 -- -- 92
2018-08-04 07:00:00 16.8 5 Sudeste 12 Sudeste 0 -- -- 91
2018-08-04 06:00:00 17.4 8 Sudeste 12 Sudeste 0 -- -- 89
2018-08-04 05:00:00 17.5 6 Sudeste 10 Sudeste 0 -- -- 88
2018-08-04 04:00:00 17.6 6 Sudeste 12 Sudeste 0 -- -- 89
2018-08-04 03:00:00 18.4 5 Sudeste 11 Sudeste 0 -- -- 87
2018-08-04 02:00:00 18.6 4 Sudeste 12 Sur 0 -- -- 89
2018-08-04 01:00:00 20 5 Sudeste 8 Sudeste 0 -- -- 88
2018-08-04 00:00:00 22 4 Sudeste 9 Sudeste 0 -- -- 84
2018-08-03 23:00:00 23.7 0 Calma 6 Sudeste 0 -- -- 88
2018-08-03 22:00:00 25.2 0 Calma 9 Nordeste 0 -- -- 88
2018-08-03 21:00:00 27 2 Noroeste 9 Norte 0 -- -- 83
2018-08-03 20:00:00 28.5 5 Norte 11 Norte 0 -- -- 78
2018-08-03 19:00:00 30.3 3 Norte 10 Norte 0 -- -- 70
2018-08-03 18:00:00 30.8 5 Noroeste 14 Noroeste 0 -- -- 64
2018-08-03 17:00:00 31.3 5 Noroeste 13 Noroeste 0 -- -- 59
2018-08-03 16:00:00 30.9 6 Noroeste 14 Norte 0 -- -- 59
2018-08-03 15:00:00 30.4 6 Norte 15 Noroeste 0 -- -- 56
2018-08-03 14:00:00 30.2 5 Noroeste 10 Noroeste 0 -- -- 60
2018-08-03 13:00:00 29.2 4 Noroeste 12 Noroeste 0 -- -- 56
2018-08-03 12:00:00 27.3 5 Noroeste 8 Noroeste 0 -- -- 70
2018-08-03 11:00:00 23.9 0 Calma 4 Este 0 -- -- 87
2018-08-03 10:00:00 19.4 0 Calma 6 Sudeste 0 -- -- 96
2018-08-03 09:00:00 17.3 2 Sudeste 8 Sudeste 0 -- -- 95
2018-08-03 08:00:00 16.4 6 Sudeste 11 Sudeste 0 -- -- 92
2018-08-03 07:00:00 16.5 7 Sudeste 11 Sudeste 0 -- -- 88
2018-08-03 06:00:00 16.6 6 Sudeste 11 Sudeste 0 -- -- 88
2018-08-03 05:00:00 16.3 5 Sudeste 13 Este 0 -- -- 89
2018-08-03 04:00:00 16.4 6 Sudeste 12 Sudeste 0 -- -- 88
2018-08-03 03:00:00 16.4 3 Sudeste 13 Sudeste 0 -- -- 89
2018-08-03 02:00:00 16.8 6 Sudeste 12 Sudeste 0 -- -- 86
2018-08-03 01:00:00 17.7 7 Sudeste 13 Sudeste 0 -- -- 84
2018-08-03 00:00:00 18.6 6 Sudeste 12 Sudeste 0 -- -- 84
2018-08-02 23:00:00 19.9 9 Sudeste 12 Sudeste 0 -- -- 82
2018-08-02 22:00:00 21.5 7 Sudeste 10 Sudeste 0 -- -- 82
2018-08-02 21:00:00 23.8 7 Sudeste 10 Sudeste 0 -- -- 77
2018-08-02 20:00:00 27.1 5 Sudeste 7 Sudeste 0 -- -- 68
2018-08-02 19:00:00 29.8 2 Oeste 10 Noroeste 0 -- -- 65
2018-08-02 18:00:00 31 4 Noroeste 15 Noroeste 0 -- -- 60
2018-08-02 17:00:00 31.1 8 Noroeste 18 Noroeste 0 -- -- 59
2018-08-02 16:00:00 31.1 7 Noroeste 13 Noroeste 0 -- -- 58
2018-08-02 15:00:00 30.6 5 Noroeste 9 Noroeste 0 -- -- 57
2018-08-02 14:00:00 29.3 4 Noroeste 9 Noroeste 0 -- -- 65
2018-08-02 13:00:00 27.7 4 Noroeste 7 Noroeste 0 -- -- 71
2018-08-02 12:00:00 25 4 Noroeste 8 Noroeste 0 -- -- 78
2018-08-02 11:00:00 20 0 Calma 5 Noroeste 0 -- -- 100
2018-08-02 10:00:00 13.6 0 Calma 3 Sudeste 0 -- -- 100
2018-08-02 09:00:00 12.5 0 Calma 6 Sudeste 0 -- -- 100
2018-08-02 08:00:00 12.1 3 Sudeste 7 Sudeste 0 -- -- 99
2018-08-02 07:00:00 12.3 2 Sudeste 4 Sudeste 0 -- -- 97
2018-08-02 06:00:00 13.5 3 Sudeste 6 Sudeste 0 -- -- 97
2018-08-02 05:00:00 14.7 3 Sudeste 7 Sur 0 -- -- 97
2018-08-02 04:00:00 15.3 4 Sudeste 8 Sudeste 0 -- -- 95
2018-08-02 03:00:00 16 4 Sudeste 6 Sur 0 -- -- 95
2018-08-02 02:00:00 16.8 3 Sudeste 5 Sudeste 0 -- -- 96
2018-08-02 01:00:00 17.3 0 Calma 2 Noroeste 0 -- -- 97
2018-08-02 00:00:00 17.4 0 Calma 5 Norte 0 -- -- 96
2018-08-01 23:00:00 17.5 3 Norte 5 Norte 0 -- -- 95
2018-08-01 22:00:00 17.9 2 Noroeste 5 Noroeste 0 -- -- 93
2018-08-01 21:00:00 18.2 3 Noroeste 6 Noroeste 0 -- -- 91
2018-08-01 20:00:00 18.4 4 Noroeste 9 Norte 0 -- -- 90
2018-08-01 19:00:00 18.5 4 Norte 10 Noroeste 0 -- -- 88
2018-08-01 18:00:00 19 5 Norte 17 Norte 0 -- -- 87
2018-08-01 17:00:00 20.9 8 Norte 23 Noroeste 0 -- -- 79
2018-08-01 16:00:00 22.7 9 Noroeste 23 Noroeste 0 -- -- 74
2018-08-01 15:00:00 22.3 10 Noroeste 20 Noroeste 0 -- -- 78
2018-08-01 14:00:00 21.6 9 Noroeste 17 Noroeste 0.2 -- -- 78
2018-08-01 13:00:00 20.2 9 Noroeste 15 Norte 0 -- -- 77
2018-08-01 12:00:00 18.4 4 Noroeste 11 Noroeste 0 -- -- 78
2018-08-01 11:00:00 16.3 2 Nordeste 4 Este 0 -- -- 91
2018-08-01 10:00:00 12.6 0 Calma 5 Sudeste 0 -- -- 100
2018-08-01 09:00:00 11.5 3 Sudeste 9 Sudeste 0 -- -- 99
2018-08-01 08:00:00 11.1 3 Sudeste 9 Sudeste 0 -- -- 100
2018-08-01 07:00:00 11.3 3 Sur 7 Sudeste 0 -- -- 100
2018-08-01 06:00:00 11.6 0 Calma 7 Sudeste 0 -- -- 99
2018-08-01 05:00:00 11.9 4 Sudeste 7 Sudeste 0 -- -- 98
2018-08-01 04:00:00 12.4 3 Sudeste 7 Sudeste 0 -- -- 98
2018-08-01 03:00:00 13.4 4 Sudeste 7 Sudeste 0 -- -- 98
2018-08-01 02:00:00 13.7 0 Calma 3 Noroeste 0 -- -- 99
2018-08-01 01:00:00 13.9 2 Oeste 5 Norte 0 -- -- 99
2018-08-01 00:00:00 13.9 0 Calma 10 Norte 0 -- -- 99
2018-07-31 23:00:00 13.9 4 Norte 10 Noroeste 0.2 -- -- 99
2018-07-31 22:00:00 14.2 5 Norte 10 Nordeste 0.2 -- -- 98
2018-07-31 21:00:00 14.5 4 Norte 11 Noroeste 0.2 -- -- 97
2018-07-31 20:00:00 15 5 Norte 12 Norte 0 -- -- 95
2018-07-31 19:00:00 15.7 4 Norte 13 Noroeste 0 -- -- 93
2018-07-31 18:00:00 15.8 4 Noroeste 12 Norte 0 -- -- 94
2018-07-31 17:00:00 15.6 4 Norte 10 Norte 0 -- -- 96
2018-07-31 16:00:00 15.8 4 Norte 16 Noroeste 0.2 -- -- 95
2018-07-31 15:00:00 16.4 5 Norte 20 Oeste 0 -- -- 90
2018-07-31 14:00:00 18.9 7 Norte 15 Noroeste 0 -- -- 83
2018-07-31 13:00:00 16.4 2 Sudeste 8 Noroeste 0 -- -- 89
2018-07-31 12:00:00 14.8 4 Noroeste 10 Noroeste 0 -- -- 97
2018-07-31 11:00:00 14.5 4 Norte 10 Noroeste 0 -- -- 97
2018-07-31 10:00:00 14.6 3 Norte 14 Norte 0 -- -- 98
2018-07-31 09:00:00 14.8 5 Norte 13 Norte 0 -- -- 97
2018-07-31 08:00:00 15.6 5 Norte 14 Norte 0 -- -- 96
2018-07-31 07:00:00 16 2 Este 12 Nordeste 0 -- -- 97
2018-07-31 06:00:00 16.7 3 Norte 7 Norte 0 -- -- 96
2018-07-31 05:00:00 17.1 3 Norte 10 Norte 0 -- -- 96
2018-07-31 04:00:00 17.5 0 Calma 8 Norte 0 -- -- 95
2018-07-31 03:00:00 17.6 0 Calma 5 Sudeste 0 -- -- 93
2018-07-31 02:00:00 17.8 2 Noroeste 4 Noroeste 0 -- -- 96
2018-07-31 01:00:00 17.8 3 Noroeste 5 Noroeste 0 -- -- 95
2018-07-31 00:00:00 17.7 3 Sudeste 6 Nordeste 0 -- -- 94
2018-07-30 23:00:00 17.3 2 Norte 8 Sudeste 0 -- -- 93
2018-07-30 22:00:00 19.5 2 Sudeste 5 Norte 0 -- -- 86
2018-07-30 21:00:00 21.1 3 Norte 9 Noroeste 0 -- -- 82
2018-07-30 20:00:00 21.1 4 Norte 12 Norte 0 -- -- 81
2018-07-30 19:00:00 22.6 4 Norte 18 Noroeste 0 -- -- 76
2018-07-30 18:00:00 23.2 6 Norte 17 Noroeste 0 -- -- 72
2018-07-30 17:00:00 23.5 8 Noroeste 23 Noroeste 0 -- -- 72
2018-07-30 16:00:00 24.5 11 Noroeste 26 Noroeste 0 -- -- 68
2018-07-30 15:00:00 25 10 Noroeste 22 Noroeste 0 -- -- 64
2018-07-30 14:00:00 24.7 9 Noroeste 21 Noroeste 0 -- -- 65
2018-07-30 13:00:00 23.7 6 Noroeste 15 Noroeste 0 -- -- 64
2018-07-30 12:00:00 22.3 5 Noroeste 12 Noroeste 0 -- -- 68
2018-07-30 11:00:00 19.5 3 Norte 8 Norte 0 -- -- 80
2018-07-30 10:00:00 13.8 0 Calma 6 Sudeste 0 -- -- 99
2018-07-30 09:00:00 12.8 6 Sudeste 8 Sudeste 0 -- -- 98
2018-07-30 08:00:00 12.2 0 Calma 10 Sur 0 -- -- 97
2018-07-30 07:00:00 12.8 2 Sudeste 9 Sur 0 -- -- 96
2018-07-30 06:00:00 13.6 5 Sudeste 9 Sudeste 0 -- -- 97
2018-07-30 05:00:00 14.4 4 Sudeste 12 Sudeste 0 -- -- 94
2018-07-30 04:00:00 13.1 3 Sudeste 9 Sudeste 0 -- -- 98
2018-07-30 03:00:00 13.9 3 Sudeste 10 Sudeste 0 -- -- 95
2018-07-30 02:00:00 14.5 5 Sudeste 9 Sudeste 0 -- -- 97
2018-07-30 01:00:00 15.6 4 Sudeste 8 Sudeste 0 -- -- 94
2018-07-30 00:00:00 17.4 0 Calma 6 Norte 0 -- -- 92
2018-07-29 23:00:00 18 0 Calma 4 Noroeste 0 -- -- 91
2018-07-29 22:00:00 19.3 0 Calma 11 Noroeste 0 -- -- 86
2018-07-29 21:00:00 21 5 Norte 13 Norte 0 -- -- 80
2018-07-29 20:00:00 24.3 5 Norte 14 Noroeste 0 -- -- 66
2018-07-29 19:00:00 25.3 5 Noroeste 15 Noroeste 0 -- -- 59
2018-07-29 18:00:00 25.4 8 Noroeste 15 Noroeste 0 -- -- 59
2018-07-29 17:00:00 25 8 Noroeste 19 Noroeste 0 -- -- 57
2018-07-29 16:00:00 24.6 9 Noroeste 19 Noroeste 0 -- -- 59
2018-07-29 15:00:00 24.2 6 Noroeste 17 Noroeste 0 -- -- 59
2018-07-29 14:00:00 23 8 Noroeste 17 Norte 0 -- -- 60
2018-07-29 13:00:00 21.8 7 Noroeste 14 Noroeste 0 -- -- 58
2018-07-29 12:00:00 20 3 Noroeste 13 Noroeste 0 -- -- 65
2018-07-29 11:00:00 17.5 2 Nordeste 14 Noroeste 0 -- -- 81
2018-07-29 10:00:00 12.1 3 Nordeste 10 Sur 0 -- -- 96
2018-07-29 09:00:00 11.8 0 Calma 9 Sudeste 0 -- -- 94
2018-07-29 08:00:00 13.3 6 Sudeste 9 Sudeste 0 -- -- 89
2018-07-29 07:00:00 13.9 5 Sudeste 10 Sudeste 0 -- -- 91
2018-07-29 06:00:00 14.5 3 Sudeste 8 Noroeste 0 -- -- 94
2018-07-29 05:00:00 14.7 3 Sudeste 9 Sudeste 0 -- -- 95
2018-07-29 04:00:00 15.1 0 Calma 6 Noroeste 0 -- -- 98
2018-07-29 03:00:00 15.6 0 Calma 5 Sudeste 0 -- -- 98
2018-07-29 02:00:00 15.6 0 Calma 7 Noroeste 0 -- -- 98
2018-07-29 01:00:00 15.9 0 Calma 3 Noroeste 0 -- -- 97
2018-07-29 00:00:00 15.9 0 Calma 4 Noroeste 0 -- -- 97
2018-07-28 23:00:00 16 0 Calma 3 Oeste 0 -- -- 97
2018-07-28 22:00:00 16.1 0 Calma 4 Norte 0 -- -- 96
2018-07-28 21:00:00 16.3 2 Noroeste 3 Norte 0 -- -- 95
2018-07-28 20:00:00 16.4 3 Noroeste 8 Norte 0 -- -- 94
2018-07-28 19:00:00 16.5 4 Norte 12 Noroeste 0 -- -- 92
2018-07-28 18:00:00 17.3 5 Norte 17 Noroeste 0 -- -- 89
2018-07-28 17:00:00 18.4 6 Norte 21 Noroeste 0 -- -- 85
2018-07-28 16:00:00 19.2 9 Noroeste 19 Noroeste 0 -- -- 82
2018-07-28 15:00:00 19.6 10 Noroeste 23 Noroeste 0 -- -- 79
2018-07-28 14:00:00 20.2 10 Noroeste 21 Noroeste 0 -- -- 78
2018-07-28 13:00:00 20 9 Noroeste 20 Norte 0 -- -- 76
2018-07-28 12:00:00 18.8 6 Noroeste 14 Norte 0 -- -- 81
2018-07-28 11:00:00 16.5 4 Noroeste 8 Noroeste 0 -- -- 86
2018-07-28 10:00:00 15.7 4 Noroeste 8 Noroeste 0 -- -- 94
2018-07-28 09:00:00 15.1 0 Calma 5 Nordeste 0 -- -- 98
2018-07-28 08:00:00 14.7 3 Norte 8 Noroeste 0 -- -- 99
2018-07-28 07:00:00 14.9 3 Norte 8 Norte 0 -- -- 100
2018-07-28 06:00:00 14.8 0 Calma 4 Norte 0 -- -- 99
2018-07-28 05:00:00 14.7 2 Noroeste 4 Noroeste 0 -- -- 99
2018-07-28 04:00:00 14.7 3 Sudeste 5 Sudeste 0 -- -- 99
2018-07-28 03:00:00 14.8 0 Calma 5 Sudeste 0 -- -- 98
2018-07-28 02:00:00 15.2 0 Calma 6 Sudeste 0 -- -- 98
2018-07-28 01:00:00 15.5 0 Calma 4 Noroeste 0 -- -- 99
2018-07-28 00:00:00 15.5 0 Calma 3 Noroeste 0 -- -- 98
2018-07-27 23:00:00 15.5 0 Calma 5 Noroeste 0.2 -- -- 98
2018-07-27 22:00:00 15.6 0 Calma 5 Norte 0.2 -- -- 98
2018-07-27 21:00:00 15.6 5 Norte 17 Noroeste 0.2 -- -- 97
2018-07-27 20:00:00 16.6 7 Norte 14 Noroeste 0 -- -- 94
2018-07-27 19:00:00 18.4 5 Norte 18 Noroeste 0 -- -- 90
2018-07-27 18:00:00 19.9 6 Noroeste 14 Norte 0 -- -- 85
2018-07-27 17:00:00 20 5 Norte 14 Noroeste 0 -- -- 86
2018-07-27 16:00:00 20.8 7 Norte 16 Noroeste 0 -- -- 81
2018-07-27 15:00:00 21 8 Norte 20 Noroeste 0 -- -- 80
2018-07-27 14:00:00 21.2 4 Noroeste 13 Oeste 0 -- -- 76
2018-07-27 13:00:00 19.3 5 Noroeste 11 Noroeste 0 -- -- 88
2018-07-27 12:00:00 17.7 2 Noroeste 10 Norte 0 -- -- 93
2018-07-27 11:00:00 17.3 2 Sur 7 Noroeste 0 -- -- 94
2018-07-27 10:00:00 16.5 0 Calma 4 Sudeste 0 -- -- 97
2018-07-27 09:00:00 16.1 2 Norte 6 Norte 0 -- -- 99
2018-07-27 08:00:00 15.9 0 Calma 4 Noroeste 0 -- -- 100
2018-07-27 07:00:00 15.8 0 Calma 4 Noroeste 0 -- -- 99
2018-07-27 06:00:00 15.9 0 Calma 4 Noroeste 0 -- -- 99
2018-07-27 05:00:00 16 0 Calma 5 Sudeste 0 -- -- 99
2018-07-27 04:00:00 16.2 0 Calma 3 Sudeste 0 -- -- 99
2018-07-27 03:00:00 16.3 0 Calma 4 Noroeste 0 -- -- 99
2018-07-27 02:00:00 16.4 0 Calma 4 Noroeste 0 -- -- 99
2018-07-27 01:00:00 16.4 0 Calma 3 Noroeste 0.2 -- -- 99
2018-07-27 00:00:00 16.4 2 Nordeste 7 Noroeste 0 -- -- 99
2018-07-26 23:00:00 16.7 3 Norte 7 Nordeste 0 -- -- 98
2018-07-26 22:00:00 16.8 0 Calma 6 Noroeste 0 -- -- 99
2018-07-26 21:00:00 16.8 4 Norte 10 Nordeste 0.2 -- -- 99
2018-07-26 20:00:00 17.2 4 Norte 12 Norte 0.6 -- -- 98
2018-07-26 19:00:00 17.6 4 Norte 13 Norte 0.2 -- -- 97
2018-07-26 18:00:00 18.3 5 Norte 10 Norte 0 -- -- 95
2018-07-26 17:00:00 19 4 Norte 13 Norte 0 -- -- 91
2018-07-26 16:00:00 20.1 4 Norte 14 Noroeste 0 -- -- 87
2018-07-26 15:00:00 20.6 5 Noroeste 15 Noroeste 0 -- -- 84
2018-07-26 14:00:00 20.5 6 Norte 19 Noroeste 0 -- -- 84
2018-07-26 13:00:00 22.1 9 Noroeste 18 Noroeste 0 -- -- 78
2018-07-26 12:00:00 20.8 5 Noroeste 13 Noroeste 0 -- -- 82
2018-07-26 11:00:00 18.3 4 Norte 10 Norte 0 -- -- 92
2018-07-26 10:00:00 13.9 5 Nordeste 8 Nordeste 0 -- -- 100
2018-07-26 09:00:00 12.6 0 Calma 6 Este 0 -- -- 100
2018-07-26 08:00:00 12 0 Calma 8 Sudeste 0 -- -- 99
2018-07-26 07:00:00 11.7 3 Sudeste 5 Sur 0 -- -- 99
2018-07-26 06:00:00 12.4 0 Calma 8 Sudeste 0 -- -- 97
2018-07-26 05:00:00 13.1 6 Sudeste 10 Sudeste 0 -- -- 98
2018-07-26 04:00:00 13.6 5 Sudeste 9 Sudeste 0.2 -- -- 97
2018-07-26 03:00:00 14.8 4 Sudeste 11 Este 0 -- -- 96
2018-07-26 02:00:00 16 3 Sudeste 9 Sudeste 0 -- -- 95
2018-07-26 01:00:00 17.3 2 Este 4 Sudeste 0 -- -- 96
2018-07-26 00:00:00 18.1 0 Calma 6 Norte 0 -- -- 98
2018-07-25 23:00:00 18.2 3 Norte 7 Norte 0.2 -- -- 97
2018-07-25 22:00:00 18.6 2 Norte 6 Nordeste 0 -- -- 95
2018-07-25 21:00:00 18.7 4 Norte 10 Norte 0 -- -- 95
2018-07-25 20:00:00 19.6 5 Norte 12 Noroeste 0 -- -- 90
2018-07-25 19:00:00 20.4 5 Norte 12 Norte 0 -- -- 87
2018-07-25 18:00:00 20.9 4 Norte 14 Norte 0 -- -- 84
2018-07-25 17:00:00 21.7 5 Norte 17 Noroeste 0 -- -- 83
2018-07-25 16:00:00 22.9 8 Noroeste 18 Noroeste 0 -- -- 78
2018-07-25 15:00:00 22.4 8 Noroeste 15 Noroeste 0.2 -- -- 79
2018-07-25 14:00:00 21.7 6 Noroeste 15 Noroeste 0 -- -- 81
2018-07-25 13:00:00 20.9 3 Noroeste 10 Noroeste 0 -- -- 81
2018-07-25 12:00:00 19.6 0 Calma 6 Noroeste 0 -- -- 82
2018-07-25 11:00:00 18.8 3 Noroeste 5 Noroeste 0 -- -- 90
2018-07-25 10:00:00 17.8 2 Sudeste 5 Sudeste 0 -- -- 92
2018-07-25 09:00:00 16.8 0 Calma 3 Sudoeste 0 -- -- 99
2018-07-25 08:00:00 16.4 2 Sudoeste 3 Norte 0 -- -- 99
2018-07-25 07:00:00 16.3 0 Calma 2 Norte 0 -- -- 99
2018-07-25 06:00:00 16.3 0 Calma 4 Norte 0 -- -- 99
2018-07-25 05:00:00 16.3 0 Calma 5 Nordeste 0 -- -- 99
2018-07-25 04:00:00 16.4 3 Norte 6 Noroeste 0 -- -- 99
2018-07-25 03:00:00 16.5 2 Noroeste 6 Norte 0 -- -- 99
2018-07-25 02:00:00 16.5 3 Norte 6 Norte 0 -- -- 99
2018-07-25 01:00:00 16.7 3 Norte 8 Norte 0 -- -- 99
2018-07-25 00:00:00 16.9 2 Norte 8 Norte 0 -- -- 99
2018-07-24 23:00:00 16.9 4 Norte 9 Noroeste 0 -- -- 99
2018-07-24 22:00:00 17.3 4 Norte 8 Norte 0.2 -- -- 98
2018-07-24 21:00:00 17.6 4 Norte 12 Noroeste 0 -- -- 97
2018-07-24 20:00:00 18 4 Norte 10 Norte 0 -- -- 96
2018-07-24 19:00:00 18.3 3 Norte 9 Norte 0 -- -- 95
2018-07-24 18:00:00 18.4 4 Norte 8 Noroeste 0 -- -- 93
2018-07-24 17:00:00 18.7 4 Norte 12 Norte 0 -- -- 91
2018-07-24 16:00:00 19.5 6 Norte 16 Norte 0 -- -- 88
2018-07-24 15:00:00 20.8 7 Noroeste 17 Noroeste 0 -- -- 83
2018-07-24 14:00:00 21.3 9 Noroeste 17 Noroeste 0 -- -- 82
2018-07-24 13:00:00 20.3 7 Noroeste 13 Noroeste 0 -- -- 83
2018-07-24 12:00:00 19.1 5 Norte 13 Noroeste 0 -- -- 88
2018-07-24 11:00:00 18.8 7 Noroeste 11 Noroeste 0 -- -- 90
2018-07-24 10:00:00 18 2 Noroeste 5 Noroeste 0 -- -- 89
2018-07-24 09:00:00 16.9 0 Calma 6 Sudeste 0 -- -- 91
2018-07-24 08:00:00 15.7 4 Sudeste 10 Sur 0 -- -- 92
2018-07-24 07:00:00 15 5 Sudeste 10 Sudeste 0 -- -- 92
2018-07-24 06:00:00 14.7 7 Sudeste 10 Sudeste 0 -- -- 92
2018-07-24 05:00:00 15.5 5 Sudeste 12 Este 0 -- -- 91
2018-07-24 04:00:00 16.3 5 Sudeste 9 Sudeste 0 -- -- 91
2018-07-24 03:00:00 17.5 3 Sudeste 7 Sur 0 -- -- 91
2018-07-24 02:00:00 18.3 3 Sudeste 6 Sudeste 0 -- -- 92
2018-07-24 01:00:00 18.2 4 Sudeste 9 Sudeste 0 -- -- 94
2018-07-24 00:00:00 18.3 0 Calma 8 Sur 0 -- -- 94
2018-07-23 23:00:00 19 0 Calma 7 Sudeste 0 -- -- 91
2018-07-23 22:00:00 21.1 2 Sudeste 5 Sudeste 0 -- -- 86
2018-07-23 21:00:00 23.8 0 Calma 7 Norte 0 -- -- 79
2018-07-23 20:00:00 25.5 3 Norte 18 Noroeste 0 -- -- 73
2018-07-23 19:00:00 26.8 6 Norte 17 Noroeste 0 -- -- 67
2018-07-23 18:00:00 27.7 9 Noroeste 21 Norte 0 -- -- 60
2018-07-23 17:00:00 28 5 Norte 16 Noroeste 0 -- -- 61
2018-07-23 16:00:00 27.2 6 Norte 14 Norte 0 -- -- 60
2018-07-23 15:00:00 27.5 6 Noroeste 13 Norte 0 -- -- 60
2018-07-23 14:00:00 27.2 7 Noroeste 14 Noroeste 0 -- -- 59
2018-07-23 13:00:00 26 4 Noroeste 9 Noroeste 0 -- -- 56
2018-07-23 12:00:00 24 3 Noroeste 10 Este 0 -- -- 72
2018-07-23 11:00:00 19.4 4 Nordeste 10 Nordeste 0 -- -- 89
2018-07-23 10:00:00 13 2 Este 5 Este 0 -- -- 100
2018-07-23 09:00:00 11.7 3 Sudeste 8 Sudeste 0 -- -- 100
2018-07-23 08:00:00 11 4 Sudeste 8 Sudeste 0 -- -- 99
2018-07-23 07:00:00 11.2 5 Sudeste 9 Sudeste 0 -- -- 99
2018-07-23 06:00:00 11.1 3 Sudeste 9 Sudeste 0 -- -- 98
2018-07-23 05:00:00 11.7 5 Sudeste 9 Sudeste 0 -- -- 98
2018-07-23 04:00:00 12.1 5 Sudeste 8 Sudeste 0 -- -- 98
2018-07-23 03:00:00 12.5 4 Sudeste 9 Sudeste 0 -- -- 97
2018-07-23 02:00:00 13.3 5 Sudeste 8 Este 0 -- -- 96
2018-07-23 01:00:00 14.5 3 Sudeste 7 Sudeste 0 -- -- 95
2018-07-23 00:00:00 16.5 0 Calma 2 Noroeste 0 -- -- 91
2018-07-22 23:00:00 17.5 0 Calma 5 Norte 0 -- -- 91
2018-07-22 22:00:00 17.6 4 Norte 8 Norte 0 -- -- 90
2018-07-22 21:00:00 18.6 3 Norte 7 Noroeste 0 -- -- 88
2018-07-22 20:00:00 19.1 2 Norte 9 Norte 0 -- -- 86
2018-07-22 19:00:00 19.9 4 Noroeste 14 Norte 0 -- -- 83
2018-07-22 18:00:00 20.5 6 Norte 19 Noroeste 0 -- -- 78
2018-07-22 17:00:00 21.7 7 Norte 19 Noroeste 0 -- -- 74
2018-07-22 16:00:00 22.9 9 Norte 21 Noroeste 0 -- -- 70
2018-07-22 15:00:00 22.6 8 Noroeste 21 Noroeste 0.2 -- -- 73
2018-07-22 14:00:00 21.9 7 Noroeste 21 Noroeste 0 -- -- 72
2018-07-22 13:00:00 20.4 8 Noroeste 15 Noroeste 0 -- -- 73
2018-07-22 12:00:00 19.1 4 Norte 11 Noroeste 0 -- -- 76
2018-07-22 11:00:00 17 3 Noroeste 7 Noroeste 0 -- -- 87
2018-07-22 10:00:00 14.6 0 Calma 5 Noroeste 0 -- -- 98
2018-07-22 09:00:00 14.1 0 Calma 5 Noroeste 0 -- -- 99
2018-07-22 08:00:00 13.5 2 Sur 5 Sudeste 0 -- -- 100
2018-07-22 07:00:00 13.5 0 Calma 6 Sudeste 0 -- -- 99
2018-07-22 06:00:00 13.7 0 Calma 5 Sur 0 -- -- 99
2018-07-22 05:00:00 13.8 3 Sudeste 4 Sudeste 0 -- -- 99
2018-07-22 04:00:00 13.9 2 Sudeste 3 Sudeste 0.4 -- -- 99
2018-07-22 03:00:00 14 0 Calma 3 Sur 0 -- -- 99
2018-07-22 02:00:00 13.9 0 Calma 10 Noroeste 0.6 -- -- 99
2018-07-22 01:00:00 14 3 Norte 9 Norte 0.6 -- -- 98
2018-07-22 00:00:00 14.5 0 Calma 3 Norte 0 -- -- 96
2018-07-21 23:00:00 14.9 2 Sudeste 4 Sudeste 0 -- -- 94
2018-07-21 22:00:00 15.5 0 Calma 6 Norte 0 -- -- 92
2018-07-21 21:00:00 16.3 3 Norte 8 Noroeste 0 -- -- 87
2018-07-21 20:00:00 17.8 3 Noroeste 6 Noroeste 0 -- -- 80
2018-07-21 19:00:00 17.1 3 Noroeste 6 Norte 0 -- -- 83
2018-07-21 18:00:00 16.2 4 Norte 9 Noroeste 0 -- -- 86
2018-07-21 17:00:00 16.7 2 Nordeste 5 Norte 0 -- -- 85
2018-07-21 16:00:00 17.1 3 Norte 8 Noroeste 0 -- -- 85
2018-07-21 15:00:00 16.6 3 Norte 12 Noroeste 0 -- -- 85
2018-07-21 14:00:00 17.3 6 Noroeste 12 Noroeste 0 -- -- 80
2018-07-21 13:00:00 16.7 0 Calma 6 Noroeste 0 -- -- 76
2018-07-21 12:00:00 16.3 4 Noroeste 10 Noroeste 0 -- -- 86
2018-07-21 11:00:00 15 4 Sudeste 9 Sudeste 0 -- -- 88
2018-07-21 10:00:00 11.6 0 Calma 2 Sudeste 0 -- -- 100
2018-07-21 09:00:00 9.5 0 Calma 6 Este 0 -- -- 100
2018-07-21 08:00:00 8.4 5 Sudeste 8 Sudeste 0 -- -- 100
2018-07-21 07:00:00 8.4 3 Sudeste 5 Sudeste 0 -- -- 99
2018-07-21 06:00:00 9.4 3 Sudeste 6 Sudeste 0 -- -- 98
2018-07-21 05:00:00 11 0 Calma 6 Sudeste 0 -- -- 98
2018-07-21 04:00:00 12.3 2 Sudeste 4 Sudeste 0 -- -- 100
2018-07-21 03:00:00 12.3 0 Calma 3 Noroeste 0 -- -- 100
2018-07-21 02:00:00 12.4 0 Calma 5 Sudeste 0 -- -- 100
2018-07-21 01:00:00 12.4 0 Calma 2 Sudeste 0 -- -- 100
2018-07-21 00:00:00 12.5 0 Calma 3 Oeste 0 -- -- 100
2018-07-20 23:00:00 12.6 0 Calma 2 Noroeste 0 -- -- 99
2018-07-20 22:00:00 12.8 0 Calma 6 Norte 0 -- -- 98
2018-07-20 21:00:00 13.1 2 Norte 8 Noroeste 0 -- -- 99
2018-07-20 20:00:00 13.5 4 Norte 8 Norte 0 -- -- 97
2018-07-20 19:00:00 13.9 0 Calma 11 Noroeste 0 -- -- 95
2018-07-20 18:00:00 14.2 3 Norte 8 Noroeste 0 -- -- 95
2018-07-20 17:00:00 13.7 3 Nordeste 13 Noroeste 0.2 -- -- 95
2018-07-20 16:00:00 14.1 5 Norte 17 Noroeste 0.6 -- -- 96
2018-07-20 15:00:00 14.6 6 Norte 16 Norte 0.2 -- -- 98
2018-07-20 14:00:00 14.3 7 Norte 14 Noroeste 0 -- -- 98
2018-07-20 13:00:00 14.3 7 Norte 17 Norte 0.4 -- -- 99
2018-07-20 12:00:00 14 8 Norte 17 Noroeste 0.4 -- -- 100
2018-07-20 11:00:00 14 6 Norte 15 Noroeste 0.8 -- -- 100
2018-07-20 10:00:00 13.9 6 Norte 12 Nordeste 0.8 -- -- 100
2018-07-20 09:00:00 13.7 5 Norte 10 Norte 0.2 -- -- 100
2018-07-20 08:00:00 13.7 3 Norte 7 Noroeste 0.4 -- -- 100
2018-07-20 07:00:00 13.8 3 Noroeste 5 Noroeste 0 -- -- 100
2018-07-20 06:00:00 13.8 0 Calma 3 Noroeste 0.2 -- -- 100
2018-07-20 05:00:00 13.8 0 Calma 6 Norte 0 -- -- 100
2018-07-20 04:00:00 13.7 3 Norte 7 Noroeste 0 -- -- 100
2018-07-20 03:00:00 13.8 3 Norte 6 Norte 0 -- -- 100
2018-07-20 02:00:00 13.9 3 Norte 9 Norte 0.2 -- -- 100
2018-07-20 01:00:00 13.9 3 Norte 11 Norte 0 -- -- 100
2018-07-20 00:00:00 14.1 5 Norte 12 Noroeste 0 -- -- 99